Time;durP1;ratioP1;P1;durP2;ratioP2;P2;SDS_P1;SDS_P2;PMS_P1;PMS_P2;Temp;Humidity;BMP_temperature;BMP_pressure;BME280_temperature;BME280_humidity;BME280_pressure;Samples;Min_cycle;Max_cycle;Signal;HPM_P1;HPM_P2
2022/06/06 00:01:39;;;;;;;;;;;;;;;22.46;47.03;100338.91;5037184;27;98026;-63
2022/06/06 00:04:05;;;;;;;;;;;;;;;22.44;47.16;100348.63;5035214;27;128584;-63
2022/06/06 00:06:31;;;;;;;;;;;;;;;22.41;47.36;100354.84;5018031;27;117648;-70
2022/06/06 00:09:00;;;;;;;;;;;;;;;22.36;47.42;100347.66;5016515;28;127395;-69
2022/06/06 00:11:26;;;;;;;;;;;;;;;22.34;47.63;100343.66;5031463;27;97550;-69
2022/06/06 00:13:52;;;;;;;;;;;;;;;22.32;47.49;100338.50;5036358;27;126883;-63
2022/06/06 00:16:17;;;;;;;;;;;;;;;22.29;47.81;100345.50;5021119;27;118182;-63
2022/06/06 00:18:44;;;;;;;;;;;;;;;22.27;47.80;100344.25;5017622;27;127275;-69
2022/06/06 00:21:11;;;;;;;;;;;;;;;22.25;47.74;100344.63;5015735;27;97529;-63
2022/06/06 00:23:37;;;;;;;;;;;;;;;22.24;47.80;100340.28;5017166;27;98028;-64
2022/06/06 00:26:11;;;;;;;;;;;;;;;22.23;47.96;100348.84;5018964;27;100331;-64
2022/06/06 00:28:37;;;;;;;;;;;;;;;22.21;48.05;100351.94;5022265;27;98036;-68
2022/06/06 00:34:48;;;;;;;;;;;;;;;22.18;47.98;100349.09;5027735;27;98892;-69
2022/06/06 00:36:34;;;;;;;;;;;;;;;22.15;48.03;100355.28;5020245;27;97704;-69
2022/06/06 00:39:01;;;;;;;;;;;;;;;22.16;48.12;100356.88;5034126;27;115995;-69
2022/06/06 00:41:26;;;;;;;;;;;;;;;22.16;48.21;100370.59;5040243;27;97874;-63
2022/06/06 00:44:32;;;;;;;;;;;;;;;22.16;48.21;100365.09;5019421;27;128225;-64
2022/06/06 00:47:16;;;;;;;;;;;;;;;22.16;48.33;100367.84;4983201;28;97805;-64
2022/06/06 00:49:44;;;;;;;;;;;;;;;22.16;48.36;100363.16;5000680;28;97255;-70
2022/06/06 00:52:14;;;;;;;;;;;;;;;22.16;48.39;100360.41;5019041;28;98495;-64
2022/06/06 00:54:40;;;;;;;;;;;;;;;22.16;48.34;100362.34;5018126;27;109856;-69
2022/06/06 00:57:13;;;;;;;;;;;;;;;22.15;48.33;100356.06;5017799;28;106595;-64
2022/06/06 00:59:39;;;;;;;;;;;;;;;22.12;48.35;100353.97;5020289;27;99595;-69
2022/06/06 01:02:07;;;;;;;;;;;;;;;22.11;48.52;100351.59;5035232;27;98773;-64
2022/06/06 01:04:32;;;;;;;;;;;;;;;22.09;48.24;100351.97;5001591;27;120873;-69
2022/06/06 01:06:58;;;;;;;;;;;;;;;22.07;48.20;100346.00;5001164;28;116831;-69
2022/06/06 01:09:25;;;;;;;;;;;;;;;22.05;48.26;100360.09;5036028;27;127553;-68
2022/06/06 01:11:59;;;;;;;;;;;;;;;22.05;48.10;100348.31;5039676;27;97933;-64
2022/06/06 01:14:28;;;;;;;;;;;;;;;22.03;48.24;100340.41;5039061;27;97886;-69
2022/06/06 01:17:18;;;;;;;;;;;;;;;22.02;48.20;100335.28;5038615;27;97510;-64
2022/06/06 01:19:47;;;;;;;;;;;;;;;22.01;48.26;100347.41;5020006;27;97525;-63
2022/06/06 01:22:22;;;;;;;;;;;;;;;21.99;48.62;100350.47;5020405;27;100894;-69
2022/06/06 01:25:03;;;;;;;;;;;;;;;21.98;48.36;100351.63;5019974;27;98935;-64
2022/06/06 01:27:38;;;;;;;;;;;;;;;21.97;48.58;100354.75;5007836;27;97933;-68
2022/06/06 01:30:07;;;;;;;;;;;;;;;21.97;48.63;100352.78;5039279;27;98666;-70
2022/06/06 01:32:42;;;;;;;;;;;;;;;21.98;48.71;100356.31;5039315;27;116161;-64
2022/06/06 01:35:08;;;;;;;;;;;;;;;21.98;48.80;100359.06;5017879;27;120726;-68
2022/06/06 01:37:41;;;;;;;;;;;;;;;21.99;48.79;100355.97;5036011;27;114231;-63
2022/06/06 01:40:10;;;;;;;;;;;;;;;21.99;49.18;100353.22;5038363;27;122164;-63
2022/06/06 01:42:44;;;;;;;;;;;;;;;22.00;49.13;100363.03;5037327;27;99062;-68
2022/06/06 01:45:14;;;;;;;;;;;;;;;22.01;49.40;100356.44;5038036;27;98224;-68
2022/06/06 01:47:43;;;;;;;;;;;;;;;22.02;49.42;100363.50;5036135;27;97874;-64
2022/06/06 01:50:09;;;;;;;;;;;;;;;22.03;49.76;100369.81;5017338;28;123892;-63
2022/06/06 01:52:56;;;;;;;;;;;;;;;22.02;49.89;100366.25;5018283;27;126772;-68
2022/06/06 01:55:25;;;;;;;;;;;;;;;22.03;50.02;100369.81;5018734;27;108583;-70
2022/06/06 01:57:52;;;;;;;;;;;;;;;22.02;50.10;100371.75;5021957;27;97725;-63
2022/06/06 02:00:18;;;;;;;;;;;;;;;22.01;50.71;100374.84;5033079;27;127747;-68
2022/06/06 02:02:44;;;;;;;;;;;;;;;22.01;50.78;100372.91;5019053;27;97543;-63
2022/06/06 02:05:11;;;;;;;;;;;;;;;22.00;50.78;100379.50;5020006;27;97510;-68
2022/06/06 02:07:38;;;;;;;;;;;;;;;21.99;51.22;100393.59;5018892;27;107458;-63
2022/06/06 02:10:05;;;;;;;;;;;;;;;21.98;51.22;100390.06;5037249;27;97849;-63
2022/06/06 02:12:31;;;;;;;;;;;;;;;21.97;51.32;100382.97;5038505;27;125284;-68
2022/06/06 02:14:57;;;;;;;;;;;;;;;21.95;51.70;100390.75;5038686;27;125812;-62
2022/06/06 02:17:23;;;;;;;;;;;;;;;21.94;51.73;100391.09;5037970;27;116112;-68
2022/06/06 02:19:49;;;;;;;;;;;;;;;21.92;51.89;100387.88;5020016;27;127526;-63
2022/06/06 02:22:15;;;;;;;;;;;;;;;21.91;52.02;100391.78;5018170;28;127647;-63
2022/06/06 02:24:41;;;;;;;;;;;;;;;21.89;53.01;100397.63;5016207;27;128507;-63
2022/06/06 02:27:07;;;;;;;;;;;;;;;21.87;52.91;100394.41;5037421;27;115645;-63
2022/06/06 02:29:32;;;;;;;;;;;;;;;21.85;52.41;100395.88;5020243;27;124983;-68
2022/06/06 02:31:58;;;;;;;;;;;;;;;21.81;52.64;100402.09;5017848;28;127490;-68
2022/06/06 02:34:25;;;;;;;;;;;;;;;21.81;52.78;100404.81;5026448;27;125722;-69
2022/06/06 02:36:51;;;;;;;;;;;;;;;21.80;52.86;100407.91;5037496;27;96934;-63
2022/06/06 02:39:17;;;;;;;;;;;;;;;21.78;52.79;100407.47;5032215;27;127675;-68
2022/06/06 02:41:44;;;;;;;;;;;;;;;21.76;53.30;100398.75;5035733;27;126380;-69
2022/06/06 02:44:10;;;;;;;;;;;;;;;21.74;53.16;100401.06;5019710;27;97755;-62
2022/06/06 02:46:36;;;;;;;;;;;;;;;21.72;52.98;100408.81;5019203;27;119641;-69
2022/06/06 02:49:01;;;;;;;;;;;;;;;21.71;53.29;100393.50;5024444;27;125479;-63
2022/06/06 02:51:27;;;;;;;;;;;;;;;21.66;53.82;100399.25;5017183;28;126210;-63
2022/06/06 02:53:53;;;;;;;;;;;;;;;21.61;54.32;100402.97;5017425;28;127335;-63
2022/06/06 02:56:19;;;;;;;;;;;;;;;21.59;53.83;100409.97;5033321;27;97495;-63
2022/06/06 02:58:45;;;;;;;;;;;;;;;21.56;53.95;100408.72;5028456;27;126787;-68
2022/06/06 03:01:11;;;;;;;;;;;;;;;21.54;54.05;100419.22;4999773;28;98211;-68
2022/06/06 03:03:39;;;;;;;;;;;;;;;21.52;55.10;100425.03;5030999;27;97469;-68
2022/06/06 03:06:05;;;;;;;;;;;;;;;21.47;55.13;100427.22;5038935;27;97785;-63
2022/06/06 03:08:42;;;;;;;;;;;;;;;21.41;55.05;100440.34;5032165;27;99190;-63
2022/06/06 03:11:29;;;;;;;;;;;;;;;21.37;54.92;100453.13;5016177;28;115739;-68
2022/06/06 03:14:23;;;;;;;;;;;;;;;21.34;55.08;100459.31;4999744;28;99872;-63
2022/06/06 03:23:18;;;;;;;;;;;;;;;21.22;55.71;100475.66;5038404;27;97167;-63
2022/06/06 03:26:04;;;;;;;;;;;;;;;21.19;55.96;100482.66;5023904;27;98079;-63
2022/06/06 03:28:42;;;;;;;;;;;;;;;21.17;55.95;100484.13;5002044;27;114190;-67
2022/06/06 03:31:30;;;;;;;;;;;;;;;21.14;56.19;100488.31;5015974;28;98506;-68
2022/06/06 03:34:03;;;;;;;;;;;;;;;21.12;56.44;100487.06;5001091;28;98187;-68
2022/06/06 03:36:49;;;;;;;;;;;;;;;21.07;57.15;100502.59;5031188;27;97624;-68
2022/06/06 03:39:35;;;;;;;;;;;;;;;21.02;56.90;100510.19;5030705;27;99278;-68
2022/06/06 03:42:19;;;;;;;;;;;;;;;20.99;56.82;100510.91;5037748;27;97637;-69
2022/06/06 03:45:15;;;;;;;;;;;;;;;20.94;57.06;100509.13;5036896;27;99605;-64
2022/06/06 03:47:56;;;;;;;;;;;;;;;20.91;56.95;100506.28;5031051;27;99069;-67
2022/06/06 03:50:44;;;;;;;;;;;;;;;20.87;57.11;100500.69;5022743;27;97693;-63
2022/06/06 03:53:21;;;;;;;;;;;;;;;20.86;57.39;100511.97;5036516;27;98552;-68
2022/06/06 03:56:13;;;;;;;;;;;;;;;20.83;57.88;100505.22;5019729;27;97644;-63
2022/06/06 03:58:39;;;;;;;;;;;;;;;20.78;57.94;100506.22;5030581;27;125758;-64
2022/06/06 04:01:07;;;;;;;;;;;;;;;20.76;58.14;100508.50;5018420;27;117867;-64
2022/06/06 04:03:34;;;;;;;;;;;;;;;20.74;58.06;100509.97;5032918;27;98602;-63
2022/06/06 04:06:03;;;;;;;;;;;;;;;20.71;58.28;100508.72;5029988;27;97346;-70
2022/06/06 04:08:29;;;;;;;;;;;;;;;20.69;58.41;100510.16;5023380;27;98086;-64
2022/06/06 04:11:28;;;;;;;;;;;;;;;20.66;58.58;100497.13;5040989;27;96940;-64
2022/06/06 04:14:03;;;;;;;;;;;;;;;20.62;58.47;100502.47;5039968;27;97699;-64
2022/06/06 04:17:00;;;;;;;;;;;;;;;20.58;58.54;100502.34;5037790;27;124320;-68
2022/06/06 04:19:54;;;;;;;;;;;;;;;20.54;59.43;100506.88;5014209;28;103127;-64
2022/06/06 04:22:38;;;;;;;;;;;;;;;20.50;59.32;100502.41;5014896;28;116639;-69
2022/06/06 04:25:17;;;;;;;;;;;;;;;20.46;59.50;100507.72;5002656;27;97841;-63
2022/06/06 04:28:00;;;;;;;;;;;;;;;20.44;59.75;100507.25;5019639;27;124511;-63
2022/06/06 04:30:56;;;;;;;;;;;;;;;20.42;59.46;100504.03;5018932;27;115886;-68
2022/06/06 04:33:29;;;;;;;;;;;;;;;20.40;59.76;100509.06;4999028;27;97659;-68
2022/06/06 04:36:01;;;;;;;;;;;;;;;20.39;59.59;100504.69;5025655;27;98782;-68
2022/06/06 04:38:51;;;;;;;;;;;;;;;20.38;59.79;100505.03;5016477;27;98502;-64
2022/06/06 04:41:38;;;;;;;;;;;;;;;20.37;59.80;100509.72;5026225;27;125290;-68
2022/06/06 04:44:12;;;;;;;;;;;;;;;20.37;59.72;100500.72;4999528;28;97603;-70
2022/06/06 04:46:44;;;;;;;;;;;;;;;20.37;59.75;100506.97;5014485;28;99567;-70
2022/06/06 04:49:11;;;;;;;;;;;;;;;20.39;59.76;100506.63;5031970;27;102306;-69
2022/06/06 04:51:37;;;;;;;;;;;;;;;20.38;59.73;100505.84;5017093;27;98214;-70
2022/06/06 04:54:03;;;;;;;;;;;;;;;20.41;59.70;100504.38;5022573;27;97519;-63
2022/06/06 04:56:29;;;;;;;;;;;;;;;20.45;59.64;100508.06;5036858;27;126359;-69
2022/06/06 04:58:57;;;;;;;;;;;;;;;20.48;59.72;100508.19;5038564;27;127437;-68
2022/06/06 05:01:23;;;;;;;;;;;;;;;20.49;59.63;100515.31;5021540;27;98848;-68
2022/06/06 05:03:49;;;;;;;;;;;;;;;20.52;60.24;100505.63;5020472;27;97552;-63
2022/06/06 05:06:18;;;;;;;;;;;;;;;20.50;59.99;100516.91;5019200;27;126751;-68
2022/06/06 05:09:13;;;;;;;;;;;;;;;20.50;59.94;100522.38;5021760;27;98349;-68
2022/06/06 05:11:50;;;;;;;;;;;;;;;;;;5027891;27;124056;-64
2022/06/06 05:14:35;;;;;;;;;;;;;;;20.53;60.36;100524.44;5013219;28;97402;-68
2022/06/06 05:17:20;;;;;;;;;;;;;;;20.54;60.29;100525.25;5012341;27;98774;-63
2022/06/06 05:20:19;;;;;;;;;;;;;;;20.56;60.43;100531.22;5016727;27;124690;-68
2022/06/06 05:23:01;;;;;;;;;;;;;;;20.56;61.06;100540.22;5015638;27;97944;-68
2022/06/06 05:25:52;;;;;;;;;;;;;;;20.57;60.83;100539.06;5013216;27;98231;-68
2022/06/06 05:28:37;;;;;;;;;;;;;;;20.63;60.62;100542.41;5019802;27;98406;-69
2022/06/06 05:31:44;;;;;;;;;;;;;;;20.70;60.44;100545.41;5016273;27;126520;-63
2022/06/06 05:34:13;;;;;;;;;;;;;;;20.79;60.33;100543.44;4968624;28;97716;-63
2022/06/06 05:36:59;;;;;;;;;;;;;;;20.88;60.63;100542.56;4971954;28;97961;-68
2022/06/06 05:39:35;;;;;;;;;;;;;;;20.98;60.16;100545.69;4997423;27;98170;-68
2022/06/06 05:42:07;;;;;;;;;;;;;;;21.07;60.13;100554.66;5017661;27;106655;-63
2022/06/06 05:45:00;;;;;;;;;;;;;;;21.14;59.75;100556.03;5010921;28;124748;-68
2022/06/06 05:47:43;;;;;;;;;;;;;;;21.21;59.73;100561.78;5004663;27;117895;-63
2022/06/06 05:50:19;;;;;;;;;;;;;;;21.27;59.67;100572.19;5015558;27;127079;-68
2022/06/06 05:53:16;;;;;;;;;;;;;;;21.33;59.48;100570.88;5012724;27;98296;-63
2022/06/06 05:55:44;;;;;;;;;;;;;;;21.38;59.43;100577.28;5012691;27;109511;-68
2022/06/06 05:58:35;;;;;;;;;;;;;;;21.40;59.32;100578.56;5014838;27;97532;-63
2022/06/06 06:01:26;;;;;;;;;;;;;;;21.47;59.26;100578.03;5013589;27;97495;-63
2022/06/06 06:04:29;;;;;;;;;;;;;;;21.54;59.16;100587.28;5014785;27;97698;-63
2022/06/06 06:07:06;;;;;;;;;;;;;;;21.67;58.77;100588.13;5015016;27;98195;-68
2022/06/06 06:09:57;;;;;;;;;;;;;;;21.67;58.81;100601.84;5017204;27;117194;-68
2022/06/06 06:12:26;;;;;;;;;;;;;;;21.60;58.82;100601.59;5005495;27;99055;-68
2022/06/06 06:15:17;;;;;;;;;;;;;;;21.56;58.84;100598.72;5004364;27;98193;-68
2022/06/06 06:17:43;;;;;;;;;;;;;;;21.69;58.56;100599.56;5018780;27;97992;-64
2022/06/06 06:20:15;;;;;;;;;;;;;;;21.97;58.06;100598.94;5012107;27;116483;-68
2022/06/06 06:22:46;;;;;;;;;;;;;;;22.37;57.23;100592.81;5010771;27;126331;-68
2022/06/06 06:25:12;;;;;;;;;;;;;;;24.79;52.50;100600.56;5000332;27;98400;-68
2022/06/06 06:27:39;;;;;;;;;;;;;;;25.14;52.96;100604.13;5012272;27;98748;-68
2022/06/06 06:30:06;;;;;;;;;;;;;;;26.36;51.12;100609.91;5019316;27;97818;-68
2022/06/06 06:32:49;;;;;;;;;;;;;;;26.89;50.14;100606.38;5012950;27;97736;-68
2022/06/06 06:35:26;;;;;;;;;;;;;;;28.01;47.77;100610.03;4996140;27;98842;-63
2022/06/06 06:37:55;;;;;;;;;;;;;;;28.64;47.22;100613.69;5002649;28;124689;-68
2022/06/06 06:40:29;;;;;;;;;;;;;;;28.83;47.34;100607.06;5013741;27;98237;-68
2022/06/06 06:43:24;;;;;;;;;;;;;;;28.51;47.49;100610.44;5011772;27;125745;-68
2022/06/06 06:45:57;;;;;;;;;;;;;;;28.43;46.97;100611.56;5010972;27;126214;-63
2022/06/06 06:48:46;;;;;;;;;;;;;;;28.23;46.96;100604.66;5010869;27;114208;-63
2022/06/06 06:51:26;;;;;;;;;;;;;;;27.89;47.14;100608.34;5007577;27;99433;-68
2022/06/06 06:54:08;;;;;;;;;;;;;;;27.91;46.83;100605.19;4995319;28;98233;-68
2022/06/06 06:56:41;;;;;;;;;;;;;;;27.57;47.37;100607.19;4998172;28;103329;-68
2022/06/06 06:59:43;;;;;;;;;;;;;;;27.56;47.08;100609.16;5012064;27;98426;-69
2022/06/06 07:11:21;;;;;;;;;;;;;;;27.14;47.18;100607.50;4996744;28;97944;-63
2022/06/06 07:14:03;;;;;;;;;;;;;;;27.00;46.64;100606.47;5004617;28;101755;-62
2022/06/06 07:16:39;;;;;;;;;;;;;;;27.02;46.58;100604.16;5012196;28;98300;-68
2022/06/06 07:19:10;;;;;;;;;;;;;;;28.06;45.28;100603.31;5012633;28;98523;-63
2022/06/06 07:21:37;;;;;;;;;;;;;;;28.38;44.73;100612.75;5016933;27;98192;-63
2022/06/06 07:24:05;;;;;;;;;;;;;;;28.29;44.98;100609.44;5016627;27;97387;-68
2022/06/06 07:26:32;;;;;;;;;;;;;;;28.71;43.79;100599.88;5015195;27;99063;-63
2022/06/06 07:28:58;;;;;;;;;;;;;;;29.51;42.69;100608.13;4988005;28;98282;-63
2022/06/06 07:31:49;;;;;;;;;;;;;;;29.26;42.55;100596.97;5010850;27;125716;-62
2022/06/06 07:34:40;;;;;;;;;;;;;;;30.07;41.17;100608.66;5013512;27;97750;-62
2022/06/06 07:37:35;;;;;;;;;;;;;;;30.57;40.20;100605.84;5017561;27;98940;-63
2022/06/06 07:40:23;;;;;;;;;;;;;;;30.99;39.91;100607.75;5011473;28;128102;-63
2022/06/06 07:43:11;;;;;;;;;;;;;;;30.57;40.47;100611.41;5015452;27;98231;-62
2022/06/06 07:45:53;;;;;;;;;;;;;;;30.55;40.44;100603.47;5016769;27;97929;-63
2022/06/06 07:48:26;;;;;;;;;;;;;;;30.31;40.38;100601.53;5013638;27;123862;-68
2022/06/06 07:50:58;;;;;;;;;;;;;;;30.40;40.13;100595.56;4998441;28;98130;-68
2022/06/06 07:53:24;;;;;;;;;;;;;;;30.01;40.18;100601.91;5015947;27;103687;-63
2022/06/06 07:56:00;;;;;;;;;;;;;;;30.21;40.05;100599.53;5021612;27;97160;-63
2022/06/06 07:58:55;;;;;;;;;;;;;;;31.63;38.47;100600.28;5014811;27;124720;-63
2022/06/06 08:01:31;;;;;;;;;;;;;;;32.31;37.66;100611.72;5008310;28;98679;-63
2022/06/06 08:04:10;;;;;;;;;;;;;;;33.72;36.22;100607.69;5022314;27;97171;-69
2022/06/06 08:06:49;;;;;;;;;;;;;;;34.76;35.09;100611.53;5014828;28;114859;-67
2022/06/06 08:09:34;;;;;;;;;;;;;;;35.30;34.58;100607.63;5014458;27;105645;-61
2022/06/06 08:12:42;;;;;;;;;;;;;;;35.22;33.68;100601.41;5017771;27;123295;-63
2022/06/06 08:15:35;;;;;;;;;;;;;;;34.02;35.25;100597.66;5000474;27;121848;-67
2022/06/06 08:18:39;;;;;;;;;;;;;;;33.88;34.50;100600.66;5014912;27;98214;-67
2022/06/06 08:21:11;;;;;;;;;;;;;;;35.04;33.38;100596.19;5015286;28;98807;-62
2022/06/06 08:23:37;;;;;;;;;;;;;;;35.19;32.71;100599.47;5014799;27;97522;-62
2022/06/06 08:26:03;;;;;;;;;;;;;;;36.28;31.19;100591.69;5019218;27;97424;-68
2022/06/06 08:28:30;;;;;;;;;;;;;;;36.72;31.08;100592.13;5015733;27;97306;-62
2022/06/06 08:30:57;;;;;;;;;;;;;;;37.97;29.10;100593.19;5017979;27;97598;-68
2022/06/06 08:33:24;;;;;;;;;;;;;;;39.08;28.62;100587.22;5021132;27;97768;-62
2022/06/06 08:35:58;;;;;;;;;;;;;;;40.22;27.69;100588.25;5020862;27;98820;-62
2022/06/06 08:38:38;;;;;;;;;;;;;;;41.41;26.60;100573.16;5015186;27;97889;-68
2022/06/06 08:41:06;;;;;;;;;;;;;;;39.43;28.36;100564.53;5013424;27;98026;-62
2022/06/06 08:43:41;;;;;;;;;;;;;;;38.36;28.82;100562.91;5014837;27;97573;-68
2022/06/06 08:46:29;;;;;;;;;;;;;;;37.05;30.20;100558.31;5014245;27;99117;-68
2022/06/06 08:50:44;;;;;;;;;;;;;;;35.62;31.49;100548.09;5014490;27;97834;-62
2022/06/06 08:52:09;;;;;;;;;;;;;;;34.13;32.52;100550.72;5012606;27;98048;-68
2022/06/06 08:54:54;;;;;;;;;;;;;;;33.05;33.70;100549.97;4997775;28;99305;-62
2022/06/06 08:57:36;;;;;;;;;;;;;;;32.16;34.38;100546.16;5015116;27;98088;-61
2022/06/06 09:00:18;;;;;;;;;;;;;;;34.80;31.45;100556.25;5013661;27;97422;-62
2022/06/06 09:02:56;;;;;;;;;;;;;;;37.21;29.26;100549.78;5012833;27;98620;-68
2022/06/06 09:05:40;;;;;;;;;;;;;;;39.37;27.24;100564.34;5016590;27;99065;-62
2022/06/06 09:08:25;;;;;;;;;;;;;;;38.70;27.71;100550.81;5016099;27;97882;-62
2022/06/06 09:11:13;;;;;;;;;;;;;;;39.81;26.39;100557.75;5018648;27;114900;-62
2022/06/06 09:13:52;;;;;;;;;;;;;;;39.17;26.83;100550.63;4996805;28;127767;-68
2022/06/06 09:16:51;;;;;;;;;;;;;;;40.95;24.90;100547.06;5012961;27;99446;-67
2022/06/06 09:19:49;;;;;;;;;;;;;;;38.22;26.97;100536.06;5018957;27;97676;-67
2022/06/06 09:22:25;;;;;;;;;;;;;;;36.53;28.61;100534.91;5013328;28;97706;-62
2022/06/06 09:25:11;;;;;;;;;;;;;;;35.27;29.48;100544.09;4997890;28;97946;-61
2022/06/06 09:27:58;;;;;;;;;;;;;;;34.62;30.49;100536.25;5011587;28;126835;-61
2022/06/06 09:30:35;;;;;;;;;;;;;;;35.85;29.27;100538.72;5016135;27;97949;-62
2022/06/06 09:33:32;;;;;;;;;;;;;;;34.86;29.97;100534.97;5012815;28;97496;-62
2022/06/06 09:36:29;;;;;;;;;;;;;;;34.15;30.56;100530.72;5010972;27;98951;-67
2022/06/06 09:39:33;;;;;;;;;;;;;;;33.37;31.65;100527.19;5009635;28;100038;-68
2022/06/06 09:42:28;;;;;;;;;;;;;;;34.28;29.95;100528.91;5016430;27;97790;-68
2022/06/06 09:44:57;;;;;;;;;;;;;;;37.28;27.55;100545.97;5010958;28;116504;-68
2022/06/06 09:48:01;;;;;;;;;;;;;;;38.53;26.78;100544.59;5014335;27;100085;-68
2022/06/06 09:50:33;;;;;;;;;;;;;;;40.65;25.29;100543.25;5015164;27;98044;-62
2022/06/06 09:53:18;;;;;;;;;;;;;;;42.23;24.39;100537.13;5021594;27;99026;-63
2022/06/06 09:59:06;;;;;;;;;;;;;;;44.62;21.72;100533.94;5007836;27;97806;-69
2022/06/06 10:01:44;;;;;;;;;;;;;;;45.38;20.98;100532.72;5015814;27;97931;-63
2022/06/06 10:04:36;;;;;;;;;;;;;;;46.10;20.10;100523.75;5014399;27;97596;-68
2022/06/06 10:07:12;;;;;;;;;;;;;;;44.62;21.54;100522.56;5019531;27;97419;-63
2022/06/06 10:10:26;;;;;;;;;;;;;;;43.97;21.97;100519.28;5011881;28;104614;-68
2022/06/06 10:12:57;;;;;;;;;;;;;;;45.42;20.40;100516.22;5003419;28;97730;-63
2022/06/06 10:15:55;;;;;;;;;;;;;;;45.92;19.92;100522.16;5011553;27;97767;-70
2022/06/06 10:18:58;;;;;;;;;;;;;;;46.55;19.38;100523.09;5008754;27;97379;-64
2022/06/06 10:22:01;;;;;;;;;;;;;;;47.09;18.98;100523.63;5008398;27;123652;-69
2022/06/06 10:24:51;;;;;;;;;;;;;;;47.72;18.60;100524.28;5012356;27;98432;-63
2022/06/06 10:28:11;;;;;;;;;;;;;;;48.08;17.77;100516.59;5018299;27;126608;-63
2022/06/06 10:31:23;;;;;;;;;;;;;;;45.31;19.89;100508.38;4961890;28;98216;-63
2022/06/06 10:34:20;;;;;;;;;;;;;;;42.79;21.19;100511.91;4996160;27;97645;-68
2022/06/06 10:36:58;;;;;;;;;;;;;;;40.69;22.88;100501.50;5016080;27;97461;-68
2022/06/06 10:39:53;;;;;;;;;;;;;;;39.02;24.21;100504.53;5011053;27;103153;-68
2022/06/06 10:42:26;;;;;;;;;;;;;;;37.47;25.45;100511.25;5011771;28;98408;-68
2022/06/06 10:45:07;;;;;;;;;;;;;;;36.35;26.29;100500.94;5010535;27;97929;-68
2022/06/06 10:48:05;;;;;;;;;;;;;;;35.49;27.09;100502.38;5015143;27;97547;-68
2022/06/06 10:53:56;;;;;;;;;;;;;;;36.11;26.73;100509.59;5013145;28;97885;-63
2022/06/06 10:56:52;;;;;;;;;;;;;;;37.89;25.40;100513.91;5014186;27;98174;-68
2022/06/06 10:59:26;;;;;;;;;;;;;;;40.26;23.56;100517.53;5012570;27;97599;-63
2022/06/06 11:02:30;;;;;;;;;;;;;;;41.22;23.09;100506.63;5016924;27;123947;-68
2022/06/06 11:05:29;;;;;;;;;;;;;;;41.02;23.68;100507.22;5014746;27;98406;-63
2022/06/06 11:08:30;;;;;;;;;;;;;;;39.12;24.93;100511.00;5011895;27;99350;-68
2022/06/06 11:11:26;;;;;;;;;;;;;;;37.59;26.20;100504.81;5009842;27;98516;-63
2022/06/06 11:14:03;;;;;;;;;;;;;;;37.75;25.68;100503.09;5009965;28;97422;-68
2022/06/06 11:16:50;;;;;;;;;;;;;;;38.64;24.48;100508.41;5011168;27;97156;-68
2022/06/06 11:19:41;;;;;;;;;;;;;;;40.68;23.54;100502.75;5010747;27;98220;-70
2022/06/06 11:22:24;;;;;;;;;;;;;;;41.10;23.64;100499.94;5012986;27;98353;-63
2022/06/06 11:25:01;;;;;;;;;;;;;;;41.78;22.35;100507.09;5012364;27;98031;-68
2022/06/06 11:27:32;;;;;;;;;;;;;;;40.11;23.65;100494.00;5008967;27;97633;-64
2022/06/06 11:30:41;;;;;;;;;;;;;;;40.43;23.59;100492.59;5010207;27;121997;-69
2022/06/06 11:33:40;;;;;;;;;;;;;;;38.57;24.49;100486.16;5011196;28;98302;-68
2022/06/06 11:36:13;;;;;;;;;;;;;;;37.77;25.70;100480.97;5013396;27;97699;-63
2022/06/06 11:38:58;;;;;;;;;;;;;;;36.79;26.28;100487.28;5012041;27;97570;-68
2022/06/06 11:41:44;;;;;;;;;;;;;;;36.00;26.87;100477.47;5015118;27;98397;-63
2022/06/06 11:44:48;;;;;;;;;;;;;;;35.62;27.21;100481.63;5011773;28;98045;-68
2022/06/06 11:47:28;;;;;;;;;;;;;;;35.45;27.15;100476.41;5009859;27;97739;-63
2022/06/06 11:50:15;;;;;;;;;;;;;;;35.86;26.47;100470.22;5017233;27;98033;-68
2022/06/06 11:53:02;;;;;;;;;;;;;;;36.86;25.82;100475.81;5012035;27;97709;-68
2022/06/06 11:55:38;;;;;;;;;;;;;;;37.39;25.54;100478.97;5009902;27;98098;-68
2022/06/06 11:58:19;;;;;;;;;;;;;;;37.68;25.67;100478.81;4995432;28;100669;-63
2022/06/06 12:01:02;;;;;;;;;;;;;;;37.86;25.60;100471.81;5012851;27;97651;-68
2022/06/06 12:04:10;;;;;;;;;;;;;;;38.29;25.21;100480.31;5014997;27;98950;-69
2022/06/06 12:06:51;;;;;;;;;;;;;;;37.22;25.70;100475.53;4984563;28;127167;-63
2022/06/06 12:09:35;;;;;;;;;;;;;;;37.06;26.12;100464.38;5010005;27;98338;-68
2022/06/06 12:12:17;;;;;;;;;;;;;;;36.65;25.90;100466.03;5015577;27;97787;-68
2022/06/06 12:15:02;;;;;;;;;;;;;;;36.55;26.17;100464.31;5009510;27;99218;-63
2022/06/06 12:18:02;;;;;;;;;;;;;;;35.79;26.18;100456.38;5005248;27;102944;-68
2022/06/06 12:20:38;;;;;;;;;;;;;;;35.26;27.19;100466.91;5013640;27;98026;-63
2022/06/06 12:23:11;;;;;;;;;;;;;;;34.90;27.26;100460.09;5016065;27;97543;-63
2022/06/06 12:25:50;;;;;;;;;;;;;;;34.47;27.24;100453.78;5015221;27;97603;-63
2022/06/06 12:28:50;;;;;;;;;;;;;;;34.11;27.92;100457.31;5014103;27;97656;-63
2022/06/06 12:31:24;;;;;;;;;;;;;;;33.91;28.31;100452.44;5020093;27;97747;-65
2022/06/06 12:34:12;;;;;;;;;;;;;;;33.83;28.40;100453.00;5015920;27;97547;-68
2022/06/06 12:36:50;;;;;;;;;;;;;;;33.77;28.68;100447.13;5004139;27;99359;-64
2022/06/06 12:39:17;;;;;;;;;;;;;;;33.62;28.89;100443.81;5016366;27;102525;-63
2022/06/06 12:42:02;;;;;;;;;;;;;;;34.02;28.49;100446.69;5013515;28;97716;-68
2022/06/06 12:44:40;;;;;;;;;;;;;;;34.34;28.49;100445.28;5014355;27;97251;-68
2022/06/06 12:47:37;;;;;;;;;;;;;;;34.33;28.37;100435.31;5016809;27;97998;-68
2022/06/06 12:50:20;;;;;;;;;;;;;;;34.04;28.69;100446.28;5015856;27;97844;-70
2022/06/06 12:53:19;;;;;;;;;;;;;;;33.81;28.79;100439.47;5013407;28;97640;-64
2022/06/06 12:56:21;;;;;;;;;;;;;;;33.59;28.93;100433.47;5014311;27;97666;-63
2022/06/06 12:59:06;;;;;;;;;;;;;;;33.42;29.01;100440.94;5007781;27;98266;-68
2022/06/06 13:01:45;;;;;;;;;;;;;;;33.40;28.98;100434.97;4998985;28;99410;-69
2022/06/06 13:04:21;;;;;;;;;;;;;;;33.62;29.07;100435.44;4996720;28;98059;-63
2022/06/06 13:06:48;;;;;;;;;;;;;;;33.43;29.12;100428.53;5015350;27;97785;-68
2022/06/06 13:09:37;;;;;;;;;;;;;;;33.24;28.81;100426.47;5015787;27;108263;-68
2022/06/06 13:12:10;;;;;;;;;;;;;;;33.18;28.95;100428.94;4998664;28;112961;-63
2022/06/06 13:15:04;;;;;;;;;;;;;;;33.35;29.07;100429.88;5014117;27;98348;-68
2022/06/06 13:18:00;;;;;;;;;;;;;;;34.07;28.72;100429.41;5014723;27;97917;-68
2022/06/06 13:20:58;;;;;;;;;;;;;;;34.27;27.64;100429.44;5011495;27;97973;-63
2022/06/06 13:23:47;;;;;;;;;;;;;;;34.40;27.71;100433.16;5007831;27;119940;-68
2022/06/06 13:26:44;;;;;;;;;;;;;;;34.53;27.00;100422.13;5004773;28;125376;-63
2022/06/06 13:29:22;;;;;;;;;;;;;;;34.39;26.85;100420.41;5015114;27;97462;-69
2022/06/06 13:31:57;;;;;;;;;;;;;;;34.00;27.68;100424.00;5019536;27;120714;-68
2022/06/06 13:34:38;;;;;;;;;;;;;;;33.78;27.72;100419.97;4995898;28;99042;-63
2022/06/06 13:37:21;;;;;;;;;;;;;;;33.54;28.52;100422.00;5014229;27;97540;-63
2022/06/06 13:40:15;;;;;;;;;;;;;;;33.41;28.42;100414.22;5018941;27;97737;-69
2022/06/06 13:42:46;;;;;;;;;;;;;;;33.58;28.66;100415.16;5011592;28;98701;-63
2022/06/06 13:45:19;;;;;;;;;;;;;;;33.84;28.27;100416.28;5011518;28;98047;-63
2022/06/06 13:48:02;;;;;;;;;;;;;;;33.94;28.24;100412.47;5019760;27;98505;-63
2022/06/06 13:50:35;;;;;;;;;;;;;;;34.32;28.06;100412.16;4978275;28;97945;-63
2022/06/06 13:53:25;;;;;;;;;;;;;;;34.60;27.76;100404.41;5012479;28;107083;-62
2022/06/06 13:56:14;;;;;;;;;;;;;;;34.70;27.41;100411.75;5012487;28;98906;-63
2022/06/06 13:58:53;;;;;;;;;;;;;;;34.66;27.69;100411.84;4996567;28;98038;-68
2022/06/06 14:01:34;;;;;;;;;;;;;;;34.58;27.43;100404.03;5013085;28;97375;-63